sensor_id;sensor_type;location;lat;lon;timestamp;P1;durP1;ratioP1;P2;durP2;ratioP2
35558;SDS011;21661;50.794;-1.066;2022-08-01T00:00:41;5.28;;;2.90;;
35558;SDS011;21661;50.794;-1.066;2022-08-01T00:03:07;3.63;;;2.20;;
35558;SDS011;21661;50.794;-1.066;2022-08-01T00:05:32;5.47;;;2.85;;
35558;SDS011;21661;50.794;-1.066;2022-08-01T00:07:58;3.80;;;2.45;;
35558;SDS011;21661;50.794;-1.066;2022-08-01T00:10:24;4.43;;;2.30;;
35558;SDS011;21661;50.794;-1.066;2022-08-01T00:12:50;7.00;;;2.97;;
35558;SDS011;21661;50.794;-1.066;2022-08-01T00:15:16;4.85;;;2.85;;
35558;SDS011;21661;50.794;-1.066;2022-08-01T00:17:42;4.85;;;2.70;;
35558;SDS011;21661;50.794;-1.066;2022-08-01T00:20:09;5.90;;;3.00;;
35558;SDS011;21661;50.794;-1.066;2022-08-01T00:22:36;5.40;;;2.58;;
35558;SDS011;21661;50.794;-1.066;2022-08-01T00:25:02;4.40;;;2.67;;
35558;SDS011;21661;50.794;-1.066;2022-08-01T00:27:29;6.10;;;2.55;;
35558;SDS011;21661;50.794;-1.066;2022-08-01T00:29:56;5.75;;;2.58;;
35558;SDS011;21661;50.794;-1.066;2022-08-01T00:32:22;6.63;;;2.90;;
35558;SDS011;21661;50.794;-1.066;2022-08-01T00:34:47;4.00;;;2.50;;
35558;SDS011;21661;50.794;-1.066;2022-08-01T00:37:13;5.50;;;2.70;;
35558;SDS011;21661;50.794;-1.066;2022-08-01T00:39:39;6.32;;;2.70;;
35558;SDS011;21661;50.794;-1.066;2022-08-01T00:42:08;6.00;;;2.42;;
35558;SDS011;21661;50.794;-1.066;2022-08-01T00:44:35;5.05;;;2.95;;
35558;SDS011;21661;50.794;-1.066;2022-08-01T00:47:01;7.65;;;2.80;;
35558;SDS011;21661;50.794;-1.066;2022-08-01T00:49:27;7.93;;;2.60;;
35558;SDS011;21661;50.794;-1.066;2022-08-01T00:51:53;5.30;;;3.10;;
35558;SDS011;21661;50.794;-1.066;2022-08-01T00:54:20;7.25;;;3.05;;
35558;SDS011;21661;50.794;-1.066;2022-08-01T00:56:46;7.10;;;2.60;;
35558;SDS011;21661;50.794;-1.066;2022-08-01T00:59:12;6.55;;;2.90;;
35558;SDS011;21661;50.794;-1.066;2022-08-01T01:01:41;7.53;;;2.85;;
35558;SDS011;21661;50.794;-1.066;2022-08-01T01:04:07;6.70;;;2.67;;
35558;SDS011;21661;50.794;-1.066;2022-08-01T01:06:40;4.15;;;2.45;;
35558;SDS011;21661;50.794;-1.066;2022-08-01T01:12:08;6.45;;;2.65;;
35558;SDS011;21661;50.794;-1.066;2022-08-01T01:14:38;11.57;;;3.20;;
35558;SDS011;21661;50.794;-1.066;2022-08-01T01:17:14;6.03;;;2.50;;
35558;SDS011;21661;50.794;-1.066;2022-08-01T01:19:46;7.40;;;2.60;;
35558;SDS011;21661;50.794;-1.066;2022-08-01T01:25:04;6.97;;;3.13;;
35558;SDS011;21661;50.794;-1.066;2022-08-01T01:27:39;6.00;;;3.13;;
35558;SDS011;21661;50.794;-1.066;2022-08-01T01:30:12;11.52;;;2.90;;
35558;SDS011;21661;50.794;-1.066;2022-08-01T01:32:38;6.05;;;2.83;;
35558;SDS011;21661;50.794;-1.066;2022-08-01T01:35:10;9.25;;;3.42;;
35558;SDS011;21661;50.794;-1.066;2022-08-01T01:37:42;6.47;;;3.28;;
35558;SDS011;21661;50.794;-1.066;2022-08-01T01:40:10;5.93;;;3.05;;
35558;SDS011;21661;50.794;-1.066;2022-08-01T01:42:38;7.85;;;3.22;;
35558;SDS011;21661;50.794;-1.066;2022-08-01T01:45:07;4.65;;;2.72;;
35558;SDS011;21661;50.794;-1.066;2022-08-01T01:47:34;5.55;;;3.08;;
35558;SDS011;21661;50.794;-1.066;2022-08-01T01:50:02;7.45;;;3.35;;
35558;SDS011;21661;50.794;-1.066;2022-08-01T01:52:31;6.15;;;2.67;;
35558;SDS011;21661;50.794;-1.066;2022-08-01T01:54:58;6.93;;;3.13;;
35558;SDS011;21661;50.794;-1.066;2022-08-01T01:57:26;5.00;;;2.55;;
35558;SDS011;21661;50.794;-1.066;2022-08-01T01:59:53;7.00;;;2.95;;
35558;SDS011;21661;50.794;-1.066;2022-08-01T02:02:20;7.63;;;3.10;;
35558;SDS011;21661;50.794;-1.066;2022-08-01T02:04:48;7.70;;;2.78;;
35558;SDS011;21661;50.794;-1.066;2022-08-01T02:07:17;6.95;;;3.13;;
35558;SDS011;21661;50.794;-1.066;2022-08-01T02:09:45;5.50;;;2.90;;
35558;SDS011;21661;50.794;-1.066;2022-08-01T02:12:12;5.80;;;2.58;;
35558;SDS011;21661;50.794;-1.066;2022-08-01T02:14:39;5.97;;;2.88;;
35558;SDS011;21661;50.794;-1.066;2022-08-01T02:17:07;5.03;;;2.92;;
35558;SDS011;21661;50.794;-1.066;2022-08-01T02:19:35;6.53;;;2.75;;
35558;SDS011;21661;50.794;-1.066;2022-08-01T02:22:02;7.15;;;3.40;;
35558;SDS011;21661;50.794;-1.066;2022-08-01T02:27:23;6.25;;;3.28;;
35558;SDS011;21661;50.794;-1.066;2022-08-01T02:29:54;5.90;;;2.72;;
35558;SDS011;21661;50.794;-1.066;2022-08-01T02:32:27;6.38;;;3.00;;
35558;SDS011;21661;50.794;-1.066;2022-08-01T02:34:57;5.78;;;3.00;;
35558;SDS011;21661;50.794;-1.066;2022-08-01T02:37:26;6.72;;;2.88;;
35558;SDS011;21661;50.794;-1.066;2022-08-01T02:39:54;5.85;;;2.83;;
35558;SDS011;21661;50.794;-1.066;2022-08-01T02:42:20;5.53;;;2.85;;
35558;SDS011;21661;50.794;-1.066;2022-08-01T02:44:51;6.07;;;3.03;;
35558;SDS011;21661;50.794;-1.066;2022-08-01T02:47:19;8.40;;;3.22;;
35558;SDS011;21661;50.794;-1.066;2022-08-01T02:49:48;7.50;;;3.45;;
35558;SDS011;21661;50.794;-1.066;2022-08-01T02:52:15;5.50;;;3.08;;
35558;SDS011;21661;50.794;-1.066;2022-08-01T02:54:45;8.43;;;3.47;;
35558;SDS011;21661;50.794;-1.066;2022-08-01T02:57:14;6.10;;;3.22;;
35558;SDS011;21661;50.794;-1.066;2022-08-01T02:59:42;6.13;;;3.33;;
35558;SDS011;21661;50.794;-1.066;2022-08-01T03:02:09;6.55;;;2.67;;
35558;SDS011;21661;50.794;-1.066;2022-08-01T03:04:36;6.03;;;2.97;;
35558;SDS011;21661;50.794;-1.066;2022-08-01T03:07:04;6.72;;;3.03;;
35558;SDS011;21661;50.794;-1.066;2022-08-01T03:09:33;5.80;;;3.22;;
35558;SDS011;21661;50.794;-1.066;2022-08-01T03:14:31;7.38;;;3.25;;
35558;SDS011;21661;50.794;-1.066;2022-08-01T03:17:00;7.18;;;2.78;;
35558;SDS011;21661;50.794;-1.066;2022-08-01T03:19:27;5.47;;;2.92;;
35558;SDS011;21661;50.794;-1.066;2022-08-01T03:21:55;6.35;;;2.95;;
35558;SDS011;21661;50.794;-1.066;2022-08-01T03:24:23;12.32;;;3.50;;
35558;SDS011;21661;50.794;-1.066;2022-08-01T03:26:51;7.78;;;3.28;;
35558;SDS011;21661;50.794;-1.066;2022-08-01T03:29:19;6.90;;;3.25;;
35558;SDS011;21661;50.794;-1.066;2022-08-01T03:31:49;5.65;;;3.50;;
35558;SDS011;21661;50.794;-1.066;2022-08-01T03:34:15;8.50;;;3.30;;
35558;SDS011;21661;50.794;-1.066;2022-08-01T03:36:47;7.05;;;3.60;;
35558;SDS011;21661;50.794;-1.066;2022-08-01T03:39:17;6.60;;;3.20;;
35558;SDS011;21661;50.794;-1.066;2022-08-01T03:41:50;5.32;;;3.40;;
35558;SDS011;21661;50.794;-1.066;2022-08-01T03:44:20;6.57;;;3.10;;
35558;SDS011;21661;50.794;-1.066;2022-08-01T03:46:54;7.25;;;3.60;;
35558;SDS011;21661;50.794;-1.066;2022-08-01T03:49:26;5.88;;;3.40;;
35558;SDS011;21661;50.794;-1.066;2022-08-01T03:51:55;12.50;;;3.58;;
35558;SDS011;21661;50.794;-1.066;2022-08-01T03:54:24;7.07;;;3.42;;
35558;SDS011;21661;50.794;-1.066;2022-08-01T03:56:51;9.30;;;3.90;;
35558;SDS011;21661;50.794;-1.066;2022-08-01T03:59:18;8.45;;;3.88;;
35558;SDS011;21661;50.794;-1.066;2022-08-01T04:01:45;8.20;;;3.60;;
35558;SDS011;21661;50.794;-1.066;2022-08-01T04:04:12;6.65;;;3.78;;
35558;SDS011;21661;50.794;-1.066;2022-08-01T04:06:39;6.40;;;3.85;;
35558;SDS011;21661;50.794;-1.066;2022-08-01T04:09:08;8.00;;;4.10;;
35558;SDS011;21661;50.794;-1.066;2022-08-01T04:11:34;9.55;;;3.95;;
35558;SDS011;21661;50.794;-1.066;2022-08-01T04:14:00;9.10;;;4.20;;
35558;SDS011;21661;50.794;-1.066;2022-08-01T04:16:25;9.02;;;4.45;;
35558;SDS011;21661;50.794;-1.066;2022-08-01T04:18:51;8.27;;;4.47;;
35558;SDS011;21661;50.794;-1.066;2022-08-01T04:21:17;6.72;;;4.22;;
35558;SDS011;21661;50.794;-1.066;2022-08-01T04:23:47;13.95;;;5.47;;
35558;SDS011;21661;50.794;-1.066;2022-08-01T04:26:14;8.65;;;4.50;;
35558;SDS011;21661;50.794;-1.066;2022-08-01T04:28:42;10.73;;;4.57;;
35558;SDS011;21661;50.794;-1.066;2022-08-01T04:31:09;9.35;;;4.80;;
35558;SDS011;21661;50.794;-1.066;2022-08-01T04:33:37;11.20;;;4.90;;
35558;SDS011;21661;50.794;-1.066;2022-08-01T04:36:05;10.80;;;4.95;;
35558;SDS011;21661;50.794;-1.066;2022-08-01T04:38:34;16.73;;;5.40;;
35558;SDS011;21661;50.794;-1.066;2022-08-01T04:41:02;7.72;;;4.35;;
35558;SDS011;21661;50.794;-1.066;2022-08-01T04:43:28;9.50;;;4.47;;
35558;SDS011;21661;50.794;-1.066;2022-08-01T04:45:54;11.82;;;4.93;;
35558;SDS011;21661;50.794;-1.066;2022-08-01T04:48:20;11.45;;;5.30;;
35558;SDS011;21661;50.794;-1.066;2022-08-01T04:50:49;12.90;;;5.10;;
35558;SDS011;21661;50.794;-1.066;2022-08-01T04:53:18;12.05;;;5.25;;
35558;SDS011;21661;50.794;-1.066;2022-08-01T04:55:46;10.88;;;4.88;;
35558;SDS011;21661;50.794;-1.066;2022-08-01T04:58:14;8.15;;;4.13;;
35558;SDS011;21661;50.794;-1.066;2022-08-01T05:00:40;10.55;;;4.32;;
35558;SDS011;21661;50.794;-1.066;2022-08-01T05:03:05;12.98;;;4.68;;
35558;SDS011;21661;50.794;-1.066;2022-08-01T05:05:31;8.68;;;4.32;;
35558;SDS011;21661;50.794;-1.066;2022-08-01T05:07:57;13.95;;;5.30;;
35558;SDS011;21661;50.794;-1.066;2022-08-01T05:10:23;11.45;;;5.60;;
35558;SDS011;21661;50.794;-1.066;2022-08-01T05:12:48;10.95;;;5.35;;
35558;SDS011;21661;50.794;-1.066;2022-08-01T05:15:14;10.32;;;4.35;;
35558;SDS011;21661;50.794;-1.066;2022-08-01T05:17:40;14.77;;;5.38;;
35558;SDS011;21661;50.794;-1.066;2022-08-01T05:20:07;10.20;;;5.00;;
35558;SDS011;21661;50.794;-1.066;2022-08-01T05:22:33;10.05;;;4.70;;
35558;SDS011;21661;50.794;-1.066;2022-08-01T05:24:58;8.73;;;4.70;;
35558;SDS011;21661;50.794;-1.066;2022-08-01T05:27:24;11.30;;;4.68;;
35558;SDS011;21661;50.794;-1.066;2022-08-01T05:29:50;12.35;;;5.85;;
35558;SDS011;21661;50.794;-1.066;2022-08-01T05:32:16;10.77;;;4.97;;
35558;SDS011;21661;50.794;-1.066;2022-08-01T05:34:42;12.70;;;4.90;;
35558;SDS011;21661;50.794;-1.066;2022-08-01T05:37:08;11.20;;;4.93;;
35558;SDS011;21661;50.794;-1.066;2022-08-01T05:39:34;11.07;;;5.05;;
35558;SDS011;21661;50.794;-1.066;2022-08-01T05:42:01;12.32;;;4.80;;
35558;SDS011;21661;50.794;-1.066;2022-08-01T05:44:26;9.57;;;5.25;;
35558;SDS011;21661;50.794;-1.066;2022-08-01T05:46:52;12.55;;;4.57;;
35558;SDS011;21661;50.794;-1.066;2022-08-01T05:49:18;13.27;;;5.38;;
35558;SDS011;21661;50.794;-1.066;2022-08-01T05:51:43;12.32;;;4.78;;
35558;SDS011;21661;50.794;-1.066;2022-08-01T05:54:09;12.35;;;5.03;;
35558;SDS011;21661;50.794;-1.066;2022-08-01T05:56:35;11.57;;;4.78;;
35558;SDS011;21661;50.794;-1.066;2022-08-01T05:59:01;12.52;;;4.90;;
35558;SDS011;21661;50.794;-1.066;2022-08-01T06:01:26;10.85;;;4.78;;
35558;SDS011;21661;50.794;-1.066;2022-08-01T06:03:52;12.75;;;4.82;;
35558;SDS011;21661;50.794;-1.066;2022-08-01T06:06:19;12.77;;;5.22;;
35558;SDS011;21661;50.794;-1.066;2022-08-01T06:08:45;11.63;;;5.10;;
35558;SDS011;21661;50.794;-1.066;2022-08-01T06:11:11;17.45;;;6.82;;
35558;SDS011;21661;50.794;-1.066;2022-08-01T06:13:37;16.67;;;5.88;;
35558;SDS011;21661;50.794;-1.066;2022-08-01T06:16:03;14.93;;;5.18;;
35558;SDS011;21661;50.794;-1.066;2022-08-01T06:18:29;11.85;;;5.38;;
35558;SDS011;21661;50.794;-1.066;2022-08-01T06:20:54;15.93;;;5.38;;
35558;SDS011;21661;50.794;-1.066;2022-08-01T06:23:20;15.05;;;6.15;;
35558;SDS011;21661;50.794;-1.066;2022-08-01T06:25:47;11.98;;;5.45;;
35558;SDS011;21661;50.794;-1.066;2022-08-01T06:28:12;15.32;;;5.63;;
35558;SDS011;21661;50.794;-1.066;2022-08-01T06:30:38;11.10;;;5.30;;
35558;SDS011;21661;50.794;-1.066;2022-08-01T06:33:04;10.35;;;4.97;;
35558;SDS011;21661;50.794;-1.066;2022-08-01T06:35:30;15.30;;;5.45;;
35558;SDS011;21661;50.794;-1.066;2022-08-01T06:37:56;14.15;;;5.90;;
35558;SDS011;21661;50.794;-1.066;2022-08-01T06:40:22;16.27;;;5.80;;
35558;SDS011;21661;50.794;-1.066;2022-08-01T06:42:48;15.48;;;5.65;;
35558;SDS011;21661;50.794;-1.066;2022-08-01T06:45:15;9.40;;;5.80;;
35558;SDS011;21661;50.794;-1.066;2022-08-01T06:47:42;12.55;;;5.15;;
35558;SDS011;21661;50.794;-1.066;2022-08-01T06:50:09;15.93;;;5.57;;
35558;SDS011;21661;50.794;-1.066;2022-08-01T06:52:35;13.85;;;6.30;;
35558;SDS011;21661;50.794;-1.066;2022-08-01T06:55:02;20.50;;;6.13;;
35558;SDS011;21661;50.794;-1.066;2022-08-01T06:57:30;19.88;;;6.10;;
35558;SDS011;21661;50.794;-1.066;2022-08-01T06:59:55;16.15;;;7.20;;
35558;SDS011;21661;50.794;-1.066;2022-08-01T07:02:21;14.20;;;6.70;;
35558;SDS011;21661;50.794;-1.066;2022-08-01T07:04:47;19.52;;;6.40;;
35558;SDS011;21661;50.794;-1.066;2022-08-01T07:07:13;18.05;;;5.95;;
35558;SDS011;21661;50.794;-1.066;2022-08-01T07:09:39;17.77;;;7.05;;
35558;SDS011;21661;50.794;-1.066;2022-08-01T07:12:06;15.52;;;5.82;;
35558;SDS011;21661;50.794;-1.066;2022-08-01T07:14:32;14.13;;;6.53;;
35558;SDS011;21661;50.794;-1.066;2022-08-01T07:16:57;20.85;;;7.25;;
35558;SDS011;21661;50.794;-1.066;2022-08-01T07:19:23;14.93;;;6.13;;
35558;SDS011;21661;50.794;-1.066;2022-08-01T07:21:49;20.85;;;6.78;;
35558;SDS011;21661;50.794;-1.066;2022-08-01T07:24:16;14.05;;;6.30;;
35558;SDS011;21661;50.794;-1.066;2022-08-01T07:26:42;17.95;;;6.22;;
35558;SDS011;21661;50.794;-1.066;2022-08-01T07:29:09;20.58;;;6.80;;
35558;SDS011;21661;50.794;-1.066;2022-08-01T07:31:35;13.88;;;6.43;;
35558;SDS011;21661;50.794;-1.066;2022-08-01T07:34:00;13.20;;;6.68;;
35558;SDS011;21661;50.794;-1.066;2022-08-01T07:36:26;12.93;;;6.13;;
35558;SDS011;21661;50.794;-1.066;2022-08-01T07:38:52;16.90;;;7.35;;
35558;SDS011;21661;50.794;-1.066;2022-08-01T07:41:17;23.38;;;7.72;;
35558;SDS011;21661;50.794;-1.066;2022-08-01T07:43:43;14.35;;;6.70;;
35558;SDS011;21661;50.794;-1.066;2022-08-01T07:46:09;19.50;;;7.22;;
35558;SDS011;21661;50.794;-1.066;2022-08-01T07:48:34;13.35;;;6.85;;
35558;SDS011;21661;50.794;-1.066;2022-08-01T07:51:00;17.65;;;7.90;;
35558;SDS011;21661;50.794;-1.066;2022-08-01T07:53:26;19.20;;;8.18;;
35558;SDS011;21661;50.794;-1.066;2022-08-01T07:55:51;13.88;;;6.82;;
35558;SDS011;21661;50.794;-1.066;2022-08-01T07:58:17;14.93;;;8.43;;
35558;SDS011;21661;50.794;-1.066;2022-08-01T08:00:43;16.80;;;7.45;;
35558;SDS011;21661;50.794;-1.066;2022-08-01T08:03:09;19.33;;;7.35;;
35558;SDS011;21661;50.794;-1.066;2022-08-01T08:05:35;19.27;;;7.40;;
35558;SDS011;21661;50.794;-1.066;2022-08-01T08:08:07;21.05;;;8.35;;
35558;SDS011;21661;50.794;-1.066;2022-08-01T08:10:34;20.30;;;7.80;;
35558;SDS011;21661;50.794;-1.066;2022-08-01T08:13:00;18.42;;;7.70;;
35558;SDS011;21661;50.794;-1.066;2022-08-01T08:15:28;17.70;;;7.68;;
35558;SDS011;21661;50.794;-1.066;2022-08-01T08:17:54;17.15;;;8.50;;
35558;SDS011;21661;50.794;-1.066;2022-08-01T08:20:20;16.10;;;8.35;;
35558;SDS011;21661;50.794;-1.066;2022-08-01T08:22:52;14.82;;;8.25;;
35558;SDS011;21661;50.794;-1.066;2022-08-01T08:25:18;17.50;;;9.25;;
35558;SDS011;21661;50.794;-1.066;2022-08-01T08:27:44;15.63;;;8.18;;
35558;SDS011;21661;50.794;-1.066;2022-08-01T08:30:11;18.58;;;9.27;;
35558;SDS011;21661;50.794;-1.066;2022-08-01T08:32:37;16.40;;;8.25;;
35558;SDS011;21661;50.794;-1.066;2022-08-01T08:35:03;17.88;;;8.75;;
35558;SDS011;21661;50.794;-1.066;2022-08-01T08:37:29;19.60;;;8.77;;
35558;SDS011;21661;50.794;-1.066;2022-08-01T08:39:55;14.43;;;7.97;;
35558;SDS011;21661;50.794;-1.066;2022-08-01T08:42:21;13.57;;;7.55;;
35558;SDS011;21661;50.794;-1.066;2022-08-01T08:44:48;16.98;;;7.13;;
35558;SDS011;21661;50.794;-1.066;2022-08-01T08:47:14;19.75;;;8.02;;
35558;SDS011;21661;50.794;-1.066;2022-08-01T08:49:42;14.15;;;7.25;;
35558;SDS011;21661;50.794;-1.066;2022-08-01T08:52:09;16.38;;;8.57;;
35558;SDS011;21661;50.794;-1.066;2022-08-01T08:54:36;14.55;;;7.72;;
35558;SDS011;21661;50.794;-1.066;2022-08-01T08:57:03;13.95;;;7.47;;
35558;SDS011;21661;50.794;-1.066;2022-08-01T08:59:30;17.30;;;8.00;;
35558;SDS011;21661;50.794;-1.066;2022-08-01T09:01:56;16.17;;;8.25;;
35558;SDS011;21661;50.794;-1.066;2022-08-01T09:04:23;11.82;;;7.15;;
35558;SDS011;21661;50.794;-1.066;2022-08-01T09:06:49;15.13;;;7.88;;
35558;SDS011;21661;50.794;-1.066;2022-08-01T09:09:14;13.43;;;7.72;;
35558;SDS011;21661;50.794;-1.066;2022-08-01T09:11:41;14.93;;;8.07;;
35558;SDS011;21661;50.794;-1.066;2022-08-01T09:16:40;14.77;;;8.23;;
35558;SDS011;21661;50.794;-1.066;2022-08-01T09:19:12;20.13;;;9.23;;
35558;SDS011;21661;50.794;-1.066;2022-08-01T09:21:58;20.45;;;9.20;;
35558;SDS011;21661;50.794;-1.066;2022-08-01T09:24:26;17.73;;;8.80;;
35558;SDS011;21661;50.794;-1.066;2022-08-01T09:26:54;12.02;;;7.80;;
35558;SDS011;21661;50.794;-1.066;2022-08-01T09:29:24;17.52;;;7.43;;
35558;SDS011;21661;50.794;-1.066;2022-08-01T09:31:54;21.52;;;8.93;;
35558;SDS011;21661;50.794;-1.066;2022-08-01T09:34:39;15.73;;;8.57;;
35558;SDS011;21661;50.794;-1.066;2022-08-01T09:37:05;11.45;;;7.53;;
35558;SDS011;21661;50.794;-1.066;2022-08-01T09:39:32;12.88;;;7.63;;
35558;SDS011;21661;50.794;-1.066;2022-08-01T09:42:23;16.83;;;7.38;;
35558;SDS011;21661;50.794;-1.066;2022-08-01T09:44:51;12.73;;;7.30;;
35558;SDS011;21661;50.794;-1.066;2022-08-01T09:47:18;10.98;;;7.13;;
35558;SDS011;21661;50.794;-1.066;2022-08-01T09:49:46;14.10;;;7.03;;
35558;SDS011;21661;50.794;-1.066;2022-08-01T09:52:22;10.82;;;6.18;;
35558;SDS011;21661;50.794;-1.066;2022-08-01T09:54:58;12.63;;;6.65;;
35558;SDS011;21661;50.794;-1.066;2022-08-01T09:57:29;13.05;;;6.28;;
35558;SDS011;21661;50.794;-1.066;2022-08-01T09:59:55;13.00;;;6.30;;
35558;SDS011;21661;50.794;-1.066;2022-08-01T10:02:26;16.92;;;8.02;;
35558;SDS011;21661;50.794;-1.066;2022-08-01T10:04:54;15.00;;;8.00;;
35558;SDS011;21661;50.794;-1.066;2022-08-01T10:07:20;15.70;;;7.78;;
35558;SDS011;21661;50.794;-1.066;2022-08-01T10:09:46;14.48;;;7.85;;
35558;SDS011;21661;50.794;-1.066;2022-08-01T10:12:13;15.07;;;8.07;;
35558;SDS011;21661;50.794;-1.066;2022-08-01T10:14:42;12.57;;;7.90;;
35558;SDS011;21661;50.794;-1.066;2022-08-01T10:17:11;13.90;;;7.57;;
35558;SDS011;21661;50.794;-1.066;2022-08-01T10:19:39;12.00;;;7.87;;
35558;SDS011;21661;50.794;-1.066;2022-08-01T10:22:10;17.88;;;8.05;;
35558;SDS011;21661;50.794;-1.066;2022-08-01T10:24:42;15.95;;;8.23;;
35558;SDS011;21661;50.794;-1.066;2022-08-01T10:27:11;12.60;;;7.28;;
35558;SDS011;21661;50.794;-1.066;2022-08-01T10:32:32;10.90;;;6.20;;
35558;SDS011;21661;50.794;-1.066;2022-08-01T10:37:26;15.40;;;6.57;;
35558;SDS011;21661;50.794;-1.066;2022-08-01T10:39:52;12.35;;;7.40;;
35558;SDS011;21661;50.794;-1.066;2022-08-01T10:42:19;12.93;;;7.15;;
35558;SDS011;21661;50.794;-1.066;2022-08-01T10:44:44;11.40;;;7.30;;
35558;SDS011;21661;50.794;-1.066;2022-08-01T10:47:12;12.10;;;6.55;;
35558;SDS011;21661;50.794;-1.066;2022-08-01T10:49:53;9.32;;;5.78;;
35558;SDS011;21661;50.794;-1.066;2022-08-01T10:52:26;10.35;;;6.70;;
35558;SDS011;21661;50.794;-1.066;2022-08-01T10:55:02;13.15;;;7.50;;
35558;SDS011;21661;50.794;-1.066;2022-08-01T10:57:42;15.90;;;8.30;;
35558;SDS011;21661;50.794;-1.066;2022-08-01T11:00:09;18.85;;;9.27;;
35558;SDS011;21661;50.794;-1.066;2022-08-01T11:03:01;13.70;;;7.80;;
35558;SDS011;21661;50.794;-1.066;2022-08-01T11:05:30;12.32;;;6.82;;
35558;SDS011;21661;50.794;-1.066;2022-08-01T11:07:58;11.20;;;7.32;;
35558;SDS011;21661;50.794;-1.066;2022-08-01T11:10:46;9.98;;;6.75;;
35558;SDS011;21661;50.794;-1.066;2022-08-01T11:13:12;10.60;;;6.50;;
35558;SDS011;21661;50.794;-1.066;2022-08-01T11:15:38;12.07;;;6.20;;
35558;SDS011;21661;50.794;-1.066;2022-08-01T11:18:47;9.88;;;6.43;;
35558;SDS011;21661;50.794;-1.066;2022-08-01T11:20:59;10.13;;;6.22;;
35558;SDS011;21661;50.794;-1.066;2022-08-01T11:23:27;10.00;;;4.93;;
35558;SDS011;21661;50.794;-1.066;2022-08-01T11:28:26;6.82;;;5.38;;
35558;SDS011;21661;50.794;-1.066;2022-08-01T11:30:53;7.72;;;5.28;;
35558;SDS011;21661;50.794;-1.066;2022-08-01T11:38:36;9.70;;;5.10;;
35558;SDS011;21661;50.794;-1.066;2022-08-01T11:49:48;9.15;;;6.40;;
35558;SDS011;21661;50.794;-1.066;2022-08-01T11:52:30;14.20;;;6.95;;
35558;SDS011;21661;50.794;-1.066;2022-08-01T11:57:27;13.32;;;8.18;;
35558;SDS011;21661;50.794;-1.066;2022-08-01T11:59:56;14.13;;;8.00;;
35558;SDS011;21661;50.794;-1.066;2022-08-01T12:02:24;10.88;;;7.82;;
35558;SDS011;21661;50.794;-1.066;2022-08-01T12:07:35;11.57;;;7.45;;
35558;SDS011;21661;50.794;-1.066;2022-08-01T12:12:36;12.05;;;7.43;;
35558;SDS011;21661;50.794;-1.066;2022-08-01T12:15:07;14.95;;;7.68;;
35558;SDS011;21661;50.794;-1.066;2022-08-01T12:17:35;15.07;;;7.90;;
35558;SDS011;21661;50.794;-1.066;2022-08-01T12:20:03;10.23;;;7.40;;
35558;SDS011;21661;50.794;-1.066;2022-08-01T12:22:31;11.10;;;6.38;;
35558;SDS011;21661;50.794;-1.066;2022-08-01T12:25:04;16.75;;;7.75;;
35558;SDS011;21661;50.794;-1.066;2022-08-01T12:27:38;13.30;;;8.20;;
35558;SDS011;21661;50.794;-1.066;2022-08-01T12:30:05;15.55;;;8.50;;
35558;SDS011;21661;50.794;-1.066;2022-08-01T12:32:40;13.93;;;8.38;;
35558;SDS011;21661;50.794;-1.066;2022-08-01T12:35:10;19.63;;;8.43;;
35558;SDS011;21661;50.794;-1.066;2022-08-01T12:37:44;13.50;;;7.78;;
35558;SDS011;21661;50.794;-1.066;2022-08-01T12:42:44;16.77;;;9.13;;
35558;SDS011;21661;50.794;-1.066;2022-08-01T12:45:15;16.17;;;8.43;;
35558;SDS011;21661;50.794;-1.066;2022-08-01T12:47:43;18.05;;;8.90;;
35558;SDS011;21661;50.794;-1.066;2022-08-01T12:50:11;16.92;;;8.35;;
35558;SDS011;21661;50.794;-1.066;2022-08-01T12:52:40;11.50;;;6.97;;
35558;SDS011;21661;50.794;-1.066;2022-08-01T12:55:10;13.38;;;7.68;;
35558;SDS011;21661;50.794;-1.066;2022-08-01T12:57:46;12.55;;;7.25;;
35558;SDS011;21661;50.794;-1.066;2022-08-01T13:00:22;10.18;;;7.25;;
35558;SDS011;21661;50.794;-1.066;2022-08-01T13:02:59;11.50;;;7.38;;
35558;SDS011;21661;50.794;-1.066;2022-08-01T13:05:42;11.50;;;7.30;;
35558;SDS011;21661;50.794;-1.066;2022-08-01T13:08:11;13.38;;;6.60;;
35558;SDS011;21661;50.794;-1.066;2022-08-01T13:10:39;12.65;;;6.85;;
35558;SDS011;21661;50.794;-1.066;2022-08-01T13:13:06;12.82;;;7.30;;
35558;SDS011;21661;50.794;-1.066;2022-08-01T13:15:33;12.32;;;6.57;;
35558;SDS011;21661;50.794;-1.066;2022-08-01T13:18:21;16.05;;;8.10;;
35558;SDS011;21661;50.794;-1.066;2022-08-01T13:20:48;13.02;;;7.63;;
35558;SDS011;21661;50.794;-1.066;2022-08-01T13:23:18;12.85;;;7.43;;
35558;SDS011;21661;50.794;-1.066;2022-08-01T13:25:51;12.20;;;7.00;;
35558;SDS011;21661;50.794;-1.066;2022-08-01T13:28:20;11.88;;;7.22;;
35558;SDS011;21661;50.794;-1.066;2022-08-01T13:30:54;13.80;;;8.02;;
35558;SDS011;21661;50.794;-1.066;2022-08-01T13:33:20;11.20;;;8.48;;
35558;SDS011;21661;50.794;-1.066;2022-08-01T13:35:47;10.13;;;6.93;;
35558;SDS011;21661;50.794;-1.066;2022-08-01T13:38:15;13.50;;;6.85;;
35558;SDS011;21661;50.794;-1.066;2022-08-01T13:40:40;11.80;;;7.00;;
35558;SDS011;21661;50.794;-1.066;2022-08-01T13:43:06;13.50;;;7.75;;
35558;SDS011;21661;50.794;-1.066;2022-08-01T13:45:32;10.00;;;6.53;;
35558;SDS011;21661;50.794;-1.066;2022-08-01T13:47:59;12.38;;;6.53;;
35558;SDS011;21661;50.794;-1.066;2022-08-01T13:50:26;14.00;;;6.88;;
35558;SDS011;21661;50.794;-1.066;2022-08-01T13:52:52;10.27;;;6.85;;
35558;SDS011;21661;50.794;-1.066;2022-08-01T13:55:18;7.93;;;5.50;;
35558;SDS011;21661;50.794;-1.066;2022-08-01T13:57:43;9.60;;;6.25;;
35558;SDS011;21661;50.794;-1.066;2022-08-01T14:00:09;10.90;;;6.25;;
35558;SDS011;21661;50.794;-1.066;2022-08-01T14:02:36;10.90;;;4.93;;
35558;SDS011;21661;50.794;-1.066;2022-08-01T14:05:01;7.53;;;4.47;;
35558;SDS011;21661;50.794;-1.066;2022-08-01T14:07:27;9.82;;;4.80;;
35558;SDS011;21661;50.794;-1.066;2022-08-01T14:09:53;9.45;;;5.05;;
35558;SDS011;21661;50.794;-1.066;2022-08-01T14:12:19;6.82;;;4.35;;
35558;SDS011;21661;50.794;-1.066;2022-08-01T14:14:44;7.90;;;4.20;;
35558;SDS011;21661;50.794;-1.066;2022-08-01T14:17:10;7.25;;;4.50;;
35558;SDS011;21661;50.794;-1.066;2022-08-01T14:19:36;9.73;;;4.50;;
35558;SDS011;21661;50.794;-1.066;2022-08-01T14:22:02;7.03;;;3.88;;
35558;SDS011;21661;50.794;-1.066;2022-08-01T14:24:27;10.23;;;4.85;;
35558;SDS011;21661;50.794;-1.066;2022-08-01T14:26:53;8.55;;;3.85;;
35558;SDS011;21661;50.794;-1.066;2022-08-01T14:29:19;8.68;;;3.70;;
35558;SDS011;21661;50.794;-1.066;2022-08-01T14:31:44;9.10;;;3.78;;
35558;SDS011;21661;50.794;-1.066;2022-08-01T14:34:10;7.10;;;4.07;;
35558;SDS011;21661;50.794;-1.066;2022-08-01T14:36:37;7.43;;;4.00;;
35558;SDS011;21661;50.794;-1.066;2022-08-01T14:39:03;9.40;;;4.55;;
35558;SDS011;21661;50.794;-1.066;2022-08-01T14:41:29;8.27;;;3.75;;
35558;SDS011;21661;50.794;-1.066;2022-08-01T14:43:54;4.88;;;3.45;;
35558;SDS011;21661;50.794;-1.066;2022-08-01T14:46:20;8.10;;;4.03;;
35558;SDS011;21661;50.794;-1.066;2022-08-01T14:48:46;9.43;;;3.80;;
35558;SDS011;21661;50.794;-1.066;2022-08-01T14:51:11;8.45;;;3.58;;
35558;SDS011;21661;50.794;-1.066;2022-08-01T14:53:37;7.55;;;3.58;;
35558;SDS011;21661;50.794;-1.066;2022-08-01T14:56:04;8.50;;;3.90;;
35558;SDS011;21661;50.794;-1.066;2022-08-01T14:58:30;6.72;;;4.00;;
35558;SDS011;21661;50.794;-1.066;2022-08-01T15:00:56;7.78;;;4.22;;
35558;SDS011;21661;50.794;-1.066;2022-08-01T15:03:22;4.53;;;3.72;;
35558;SDS011;21661;50.794;-1.066;2022-08-01T15:05:48;5.70;;;3.60;;
35558;SDS011;21661;50.794;-1.066;2022-08-01T15:08:13;7.18;;;3.53;;
35558;SDS011;21661;50.794;-1.066;2022-08-01T15:10:39;7.40;;;3.60;;
35558;SDS011;21661;50.794;-1.066;2022-08-01T15:13:05;5.43;;;3.63;;
35558;SDS011;21661;50.794;-1.066;2022-08-01T15:15:31;6.55;;;4.03;;